createdAt,value
2022-11-16T00:00:05.772Z,2.8
2022-11-16T00:05:03.136Z,2.68
2022-11-16T00:10:02.463Z,2.45
2022-11-16T00:15:03.683Z,2.4
2022-11-16T00:20:03.243Z,2.57
2022-11-16T00:25:02.609Z,2.46
2022-11-16T00:30:03.438Z,2.28
2022-11-16T00:35:02.770Z,2.02
2022-11-16T00:40:03.362Z,1.95
2022-11-16T00:45:02.970Z,1.95
2022-11-16T00:50:03.217Z,1.94
2022-11-16T00:55:04.830Z,1.94
2022-11-16T01:00:02.478Z,1.72
2022-11-16T01:05:03.703Z,1.81
2022-11-16T01:10:02.977Z,1.82
2022-11-16T01:15:02.550Z,2.02
2022-11-16T01:20:02.716Z,2.12
2022-11-16T01:25:03.216Z,2.06
2022-11-16T01:30:04.968Z,1.96
2022-11-16T01:35:02.681Z,1.91
2022-11-16T01:40:02.310Z,1.91
2022-11-16T01:45:03.333Z,2
2022-11-16T01:50:02.792Z,1.97
2022-11-16T01:55:04.090Z,2.01
2022-11-16T02:00:02.733Z,1.95
2022-11-16T02:05:03.316Z,1.92
2022-11-16T02:10:03.151Z,1.92
2022-11-16T02:15:03.643Z,1.86
2022-11-16T02:20:03.417Z,1.71
2022-11-16T02:25:02.926Z,1.67
2022-11-16T02:30:02.978Z,1.66
2022-11-16T02:35:02.346Z,1.7
2022-11-16T02:45:02.979Z,1.73
2022-11-16T02:50:02.568Z,1.82
2022-11-16T02:55:04.899Z,1.94
2022-11-16T03:00:03.583Z,2.06
2022-11-16T03:05:02.929Z,2.2
2022-11-16T03:10:02.561Z,2.36
2022-11-16T03:15:03.058Z,2.47
2022-11-16T03:20:03.291Z,2.58
2022-11-16T03:25:03.009Z,2.66
2022-11-16T03:30:02.327Z,2.76
2022-11-16T03:35:03.405Z,2.83
2022-11-16T03:40:02.371Z,2.89
2022-11-16T03:45:03.540Z,2.94
2022-11-16T03:50:02.999Z,2.99
2022-11-16T03:55:04.129Z,3.02
2022-11-16T04:00:03.536Z,3.08
2022-11-16T04:05:03.124Z,3.16
2022-11-16T04:10:02.794Z,3.22
2022-11-16T04:15:03.390Z,3.27
2022-11-16T04:20:03.044Z,3.29
2022-11-16T04:25:03.349Z,3.3
2022-11-16T04:30:02.671Z,3.35
2022-11-16T04:35:02.967Z,3.39
2022-11-16T04:40:03.126Z,3.39
2022-11-16T04:45:02.857Z,3.42
2022-11-16T04:50:02.961Z,3.44
2022-11-16T04:55:04.707Z,3.44
2022-11-16T05:00:03.086Z,3.45
2022-11-16T05:05:03.164Z,3.46
2022-11-16T05:10:02.781Z,3.48
2022-11-16T05:15:02.674Z,3.49
2022-11-16T05:20:03.469Z,3.5
2022-11-16T05:25:02.984Z,3.53
2022-11-16T05:30:02.646Z,3.55
2022-11-16T05:35:02.297Z,3.56
2022-11-16T05:40:03.273Z,3.57
2022-11-16T05:45:02.960Z,3.57
2022-11-16T05:50:03.492Z,3.59
2022-11-16T05:55:03.950Z,3.6
2022-11-16T06:00:03.295Z,3.59
2022-11-16T06:05:03.268Z,3.57
2022-11-16T06:10:02.613Z,3.52
2022-11-16T06:15:02.765Z,3.51
2022-11-16T06:20:03.461Z,3.48
2022-11-16T06:25:02.798Z,3.5
2022-11-16T06:30:02.814Z,3.51
2022-11-16T06:35:03.189Z,3.52
2022-11-16T06:40:03.193Z,3.55
2022-11-16T06:45:02.914Z,3.6
2022-11-16T06:50:03.538Z,3.64
2022-11-16T06:55:04.080Z,3.67
2022-11-16T07:00:03.044Z,3.7
2022-11-16T07:05:03.874Z,3.73
2022-11-16T07:10:03.397Z,3.76
2022-11-16T07:15:03.109Z,3.81
2022-11-16T07:20:02.602Z,3.9
2022-11-16T07:25:03.434Z,3.96
2022-11-16T07:30:03.439Z,4.01
2022-11-16T07:35:03.585Z,4.07
2022-11-16T07:40:02.875Z,4.14
2022-11-16T07:45:03.079Z,4.21
2022-11-16T07:50:02.581Z,4.29
2022-11-16T07:55:04.552Z,4.33
2022-11-16T08:00:03.704Z,4.4
2022-11-16T08:05:02.484Z,4.46
2022-11-16T08:10:03.592Z,4.55
2022-11-16T08:15:03.199Z,4.6
2022-11-16T08:20:03.192Z,4.66
2022-11-16T08:25:02.901Z,4.72
2022-11-16T08:30:02.566Z,4.69
2022-11-16T08:35:03.404Z,4.69
2022-11-16T08:40:03.182Z,4.7
2022-11-16T08:45:03.258Z,4.74
2022-11-16T08:50:02.863Z,4.8
2022-11-16T08:55:04.138Z,4.85
2022-11-16T09:00:02.821Z,4.9
2022-11-16T09:05:03.313Z,4.91
2022-11-16T09:10:03.353Z,4.9
2022-11-16T09:15:03.166Z,4.96
2022-11-16T09:20:03.112Z,4.94
2022-11-16T09:25:03.064Z,5.03
2022-11-16T09:30:02.356Z,5
2022-11-16T09:35:03.414Z,5.02
2022-11-16T09:40:02.849Z,5.09
2022-11-16T09:45:03.134Z,5.12
2022-11-16T09:50:04.686Z,5.11
2022-11-16T09:55:03.986Z,5.14
2022-11-16T12:00:03.097Z,5.32
2022-11-16T12:05:02.698Z,5.33
2022-11-16T12:10:03.095Z,5.35
2022-11-16T12:15:03.002Z,5.38
2022-11-16T12:20:02.803Z,5.42
2022-11-16T12:25:02.258Z,5.46
2022-11-16T12:30:03.466Z,5.44
2022-11-16T12:35:03.134Z,5.45
2022-11-16T12:40:02.731Z,5.46
2022-11-16T12:45:03.143Z,5.45
2022-11-16T12:50:02.395Z,5.43
2022-11-16T12:55:28.741Z,5.4
2022-11-16T13:00:02.725Z,5.35
2022-11-16T13:05:03.388Z,5.42
2022-11-16T13:10:02.447Z,5.51
2022-11-16T13:15:03.605Z,5.52
2022-11-16T13:20:02.971Z,5.53
2022-11-16T13:25:02.979Z,5.56
2022-11-16T13:30:02.931Z,5.58
2022-11-16T13:35:03.443Z,5.58
2022-11-16T13:40:02.879Z,5.53
2022-11-16T13:45:03.225Z,5.54
2022-11-16T13:50:03.313Z,5.54
2022-11-16T13:55:03.780Z,5.51
2022-11-16T14:00:02.250Z,5.5
2022-11-16T14:05:03.221Z,5.48
2022-11-16T14:10:02.642Z,5.48
2022-11-16T14:15:04.711Z,5.46
2022-11-16T14:20:03.160Z,5.46
2022-11-16T14:25:02.526Z,5.43
2022-11-16T14:30:02.569Z,5.42
2022-11-16T14:35:03.050Z,5.38
2022-11-16T14:40:02.563Z,5.35
2022-11-16T14:45:02.701Z,5.32
2022-11-16T14:50:03.026Z,5.25
2022-11-16T14:55:03.925Z,5.17
2022-11-16T15:00:03.443Z,5.13
2022-11-16T15:05:02.312Z,5.07
2022-11-16T15:10:03.477Z,4.99
2022-11-16T15:15:02.919Z,4.88
2022-11-16T15:20:02.499Z,4.83
2022-11-16T15:25:03.622Z,4.82
2022-11-16T15:30:03.502Z,4.75
2022-11-16T15:35:05.267Z,4.74
2022-11-16T15:40:03.001Z,4.72
2022-11-16T15:50:02.599Z,4.71
2022-11-16T15:55:03.742Z,4.68
2022-11-16T16:00:03.330Z,4.65
2022-11-16T16:05:02.876Z,4.62
2022-11-16T16:10:03.304Z,4.62
2022-11-16T16:15:03.597Z,4.59
2022-11-16T16:20:02.569Z,4.6
2022-11-16T16:25:03.117Z,4.56
2022-11-16T16:30:03.186Z,4.58
2022-11-16T16:35:03.058Z,4.58
2022-11-16T16:40:03.013Z,4.58
2022-11-16T16:45:03.126Z,4.57
2022-11-16T16:50:02.858Z,4.58
2022-11-16T16:55:04.888Z,4.57
2022-11-16T17:00:03.583Z,4.56
2022-11-16T17:05:02.539Z,4.56
2022-11-16T17:10:03.627Z,4.56
2022-11-16T17:15:03.665Z,4.55
2022-11-16T17:20:02.757Z,4.54
2022-11-16T17:25:02.883Z,4.54
2022-11-16T17:30:02.322Z,4.54
2022-11-16T17:35:03.032Z,4.55
2022-11-16T17:40:02.925Z,4.55
2022-11-16T17:45:02.635Z,4.55
2022-11-16T17:50:03.456Z,4.55
2022-11-16T17:55:04.092Z,4.53
2022-11-16T18:00:02.860Z,4.53
2022-11-16T18:05:03.573Z,4.53
2022-11-16T18:10:02.983Z,4.52
2022-11-16T18:15:29.775Z,4.5
2022-11-16T18:20:03.072Z,4.52
2022-11-16T18:25:03.201Z,4.49
2022-11-16T18:30:02.466Z,4.48
2022-11-16T18:35:03.619Z,4.48
2022-11-16T18:40:02.954Z,4.47
2022-11-16T18:45:02.436Z,4.44
2022-11-16T18:50:03.708Z,4.45
2022-11-16T18:55:04.617Z,4.44
2022-11-16T19:00:03.616Z,4.42
2022-11-16T19:05:02.631Z,4.4
2022-11-16T19:10:02.967Z,4.38
2022-11-16T19:15:02.850Z,4.36
2022-11-16T19:20:03.428Z,4.35
2022-11-16T19:25:05.788Z,4.34
2022-11-16T19:30:03.060Z,4.32
2022-11-16T19:35:02.366Z,4.32
2022-11-16T19:40:03.489Z,4.3
2022-11-16T19:45:03.079Z,4.31
2022-11-16T19:50:02.481Z,4.29
2022-11-16T19:55:04.440Z,4.29
2022-11-16T20:00:02.951Z,4.29
2022-11-16T20:05:03.051Z,4.28
2022-11-16T20:10:02.700Z,4.27
2022-11-16T20:15:03.185Z,4.26
2022-11-16T20:20:03.448Z,4.22
2022-11-16T20:25:02.506Z,4.21
2022-11-16T20:30:08.087Z,4.2
2022-11-16T20:35:03.013Z,4.17
2022-11-16T20:40:02.330Z,4.14
2022-11-16T20:45:03.458Z,4.13
2022-11-16T20:50:02.737Z,4.09
2022-11-16T20:55:03.635Z,4.13
2022-11-16T21:00:03.563Z,4.09
2022-11-16T21:05:03.295Z,4.09
2022-11-16T21:10:03.117Z,4.07
2022-11-16T21:15:02.435Z,4.05
2022-11-16T21:20:26.179Z,4.06
2022-11-16T21:25:02.741Z,4.06
2022-11-16T21:30:03.371Z,4.07
2022-11-16T21:35:03.167Z,4.07
2022-11-16T21:40:02.383Z,4.08
2022-11-16T21:45:03.157Z,4.09
2022-11-16T21:50:33.014Z,4.09
2022-11-16T21:55:03.705Z,4.11
2022-11-16T22:00:03.538Z,4.11
2022-11-16T22:05:02.766Z,4.08
2022-11-16T22:10:02.495Z,4.07
2022-11-16T22:15:03.671Z,4.07
2022-11-16T22:20:03.379Z,4.06
2022-11-16T22:25:03.677Z,4.05
2022-11-16T22:30:02.557Z,4.05
2022-11-16T22:35:02.233Z,4.04
2022-11-16T22:40:02.971Z,4.03
2022-11-16T22:45:02.977Z,4
2022-11-16T22:50:02.750Z,4.03
2022-11-16T22:55:04.351Z,4.02
2022-11-16T23:00:03.115Z,4.03
2022-11-16T23:05:02.992Z,4.03
2022-11-16T23:10:02.771Z,4.02
2022-11-16T23:15:03.263Z,4.01
2022-11-16T23:20:03.232Z,4.02
2022-11-16T23:25:02.751Z,4.05
2022-11-16T23:30:13.395Z,4.04
2022-11-16T23:35:03.387Z,4
2022-11-16T23:40:02.868Z,3.95
2022-11-16T23:45:02.924Z,3.88
2022-11-16T23:50:03.293Z,3.85
2022-11-16T23:55:04.161Z,3.82
